Strona główna
METAR-TAF:

METAR-TAF

Lotnisko :

RAF Fairford

Fairford, Anglia

Szerokość geograficzna: 51-41N, Długość geograficzna: 001-47W, wysokość: 87 m

Aktualna obserwacja pogody

Raport powstał 27 minut temu, godzina 17:56 UTC
Wiatr 6 kt od zachodnio-północny zachód
Temperatura 22°C
Wilgotność 38%
Ciśnienie 1034 hPa
Widzialność 10 km lub więcej
bezchmurnie

METAR: EGVA 251756Z AUTO 29006KT 9999 CLR 22/07 A3052 RMK AO2 SLP338 T02180072 10227 20214 57005 $

czas: 19:23 (18:23 UTC)


TAF: brakujący

Obserwacja i prognoza pogody dla ponad 4000 lotnisk (raport METAR i TAF).

Dostępne stacje oznaczono żółtymi i czerwonymi punktami na mapie.

Najedź kursorem aby zobaczyć nazwę stacji.

Kliknij aby zobaczyć obserwacje i prognozy pogody.

Aby zmienić mapę: kliknij na zielony przycisk z czarnym krzyżykiem, aby powiększyć; na zielony przycisk z myślnikiem, aby pomniejszyć; na zielone strzałki, aby przejść do map sąsiednich.


METAR-TAF: